sensor_id;sensor_type;location;lat;lon;timestamp;temperature;humidity
15152;DHT22;7676;50.900;6.234;2023-03-01T00:12:03;2.60;99.90
15152;DHT22;7676;50.900;6.234;2023-03-01T00:27:06;2.80;99.90
15152;DHT22;7676;50.900;6.234;2023-03-01T00:42:08;2.00;99.90
15152;DHT22;7676;50.900;6.234;2023-03-01T00:57:10;1.80;99.90
15152;DHT22;7676;50.900;6.234;2023-03-01T01:12:13;1.60;99.90
15152;DHT22;7676;50.900;6.234;2023-03-01T01:27:15;1.50;99.90
15152;DHT22;7676;50.900;6.234;2023-03-01T01:42:18;1.70;99.90
15152;DHT22;7676;50.900;6.234;2023-03-01T01:57:40;2.10;99.90
15152;DHT22;7676;50.900;6.234;2023-03-01T02:12:45;2.30;99.90
15152;DHT22;7676;50.900;6.234;2023-03-01T02:28:05;2.30;99.90
15152;DHT22;7676;50.900;6.234;2023-03-01T02:43:11;2.10;99.90
15152;DHT22;7676;50.900;6.234;2023-03-01T02:58:15;1.80;99.90
15152;DHT22;7676;50.900;6.234;2023-03-01T03:13:18;2.10;99.90
15152;DHT22;7676;50.900;6.234;2023-03-01T03:28:21;1.80;99.90
15152;DHT22;7676;50.900;6.234;2023-03-01T03:43:23;1.90;99.90
15152;DHT22;7676;50.900;6.234;2023-03-01T03:58:26;1.90;99.90
15152;DHT22;7676;50.900;6.234;2023-03-01T04:13:28;1.70;99.90
15152;DHT22;7676;50.900;6.234;2023-03-01T04:28:40;1.10;99.90
15152;DHT22;7676;50.900;6.234;2023-03-01T04:43:45;0.60;99.90
15152;DHT22;7676;50.900;6.234;2023-03-01T04:58:47;-0.10;99.90
15152;DHT22;7676;50.900;6.234;2023-03-01T05:13:50;-0.20;99.90
15152;DHT22;7676;50.900;6.234;2023-03-01T05:28:57;-0.40;99.90
15152;DHT22;7676;50.900;6.234;2023-03-01T05:44:01;0.10;99.90
15152;DHT22;7676;50.900;6.234;2023-03-01T05:59:04;-0.10;99.90
15152;DHT22;7676;50.900;6.234;2023-03-01T06:14:07;-0.50;99.90
15152;DHT22;7676;50.900;6.234;2023-03-01T06:29:10;-0.10;99.90
15152;DHT22;7676;50.900;6.234;2023-03-01T06:44:12;0.20;99.90
15152;DHT22;7676;50.900;6.234;2023-03-01T06:59:16;0.30;99.90
15152;DHT22;7676;50.900;6.234;2023-03-01T07:14:19;0.20;99.90
15152;DHT22;7676;50.900;6.234;2023-03-01T07:29:21;0.20;99.90
15152;DHT22;7676;50.900;6.234;2023-03-01T07:44:24;0.00;99.90
15152;DHT22;7676;50.900;6.234;2023-03-01T07:59:26;-0.10;99.90
15152;DHT22;7676;50.900;6.234;2023-03-01T08:14:32;-0.30;99.90
15152;DHT22;7676;50.900;6.234;2023-03-01T08:29:34;-0.10;99.90
15152;DHT22;7676;50.900;6.234;2023-03-01T08:44:36;0.30;99.90
15152;DHT22;7676;50.900;6.234;2023-03-01T08:59:39;0.50;99.90
15152;DHT22;7676;50.900;6.234;2023-03-01T09:14:41;0.70;99.90
15152;DHT22;7676;50.900;6.234;2023-03-01T09:29:44;1.20;99.90
15152;DHT22;7676;50.900;6.234;2023-03-01T09:45:29;1.30;99.90
15152;DHT22;7676;50.900;6.234;2023-03-01T10:00:44;1.70;99.90
15152;DHT22;7676;50.900;6.234;2023-03-01T10:15:55;2.00;99.90
15152;DHT22;7676;50.900;6.234;2023-03-01T10:31:00;2.40;99.90
15152;DHT22;7676;50.900;6.234;2023-03-01T10:46:04;2.30;99.90
15152;DHT22;7676;50.900;6.234;2023-03-01T11:01:29;2.90;99.90
15152;DHT22;7676;50.900;6.234;2023-03-01T11:16:37;3.30;99.90
15152;DHT22;7676;50.900;6.234;2023-03-01T11:31:41;3.30;99.90
15152;DHT22;7676;50.900;6.234;2023-03-01T12:17:27;4.70;99.90
15152;DHT22;7676;50.900;6.234;2023-03-01T12:32:43;4.80;99.90
15152;DHT22;7676;50.900;6.234;2023-03-01T12:48:17;4.60;99.90
15152;DHT22;7676;50.900;6.234;2023-03-01T13:03:57;5.00;99.90
15152;DHT22;7676;50.900;6.234;2023-03-01T13:19:25;5.60;99.90
15152;DHT22;7676;50.900;6.234;2023-03-01T13:34:48;5.80;99.90
15152;DHT22;7676;50.900;6.234;2023-03-01T13:50:00;5.50;99.90
15152;DHT22;7676;50.900;6.234;2023-03-01T14:05:03;5.60;99.90
15152;DHT22;7676;50.900;6.234;2023-03-01T14:20:28;5.50;99.90
15152;DHT22;7676;50.900;6.234;2023-03-01T14:35:34;5.90;99.90
15152;DHT22;7676;50.900;6.234;2023-03-01T14:50:41;5.90;99.90
15152;DHT22;7676;50.900;6.234;2023-03-01T15:05:44;6.00;99.90
15152;DHT22;7676;50.900;6.234;2023-03-01T15:20:48;5.90;99.90
15152;DHT22;7676;50.900;6.234;2023-03-01T15:35:52;5.80;99.90
15152;DHT22;7676;50.900;6.234;2023-03-01T15:50:58;6.00;99.90
15152;DHT22;7676;50.900;6.234;2023-03-01T16:06:01;6.00;99.90
15152;DHT22;7676;50.900;6.234;2023-03-01T16:21:03;5.70;99.90
15152;DHT22;7676;50.900;6.234;2023-03-01T16:36:11;5.70;99.90
15152;DHT22;7676;50.900;6.234;2023-03-01T16:51:14;5.40;99.90
15152;DHT22;7676;50.900;6.234;2023-03-01T17:06:20;5.30;99.90
15152;DHT22;7676;50.900;6.234;2023-03-01T17:21:22;4.90;99.90
15152;DHT22;7676;50.900;6.234;2023-03-01T17:36:25;4.20;99.90
15152;DHT22;7676;50.900;6.234;2023-03-01T17:51:27;4.20;99.90
15152;DHT22;7676;50.900;6.234;2023-03-01T18:06:30;3.80;99.90
15152;DHT22;7676;50.900;6.234;2023-03-01T18:21:33;3.60;99.90
15152;DHT22;7676;50.900;6.234;2023-03-01T18:36:35;3.30;99.90
15152;DHT22;7676;50.900;6.234;2023-03-01T18:51:39;3.30;99.90
15152;DHT22;7676;50.900;6.234;2023-03-01T19:06:43;3.20;99.90
15152;DHT22;7676;50.900;6.234;2023-03-01T19:21:45;3.20;99.90
15152;DHT22;7676;50.900;6.234;2023-03-01T19:37:04;3.50;99.90
15152;DHT22;7676;50.900;6.234;2023-03-01T19:52:06;4.30;99.90
15152;DHT22;7676;50.900;6.234;2023-03-01T20:07:09;4.30;99.90
15152;DHT22;7676;50.900;6.234;2023-03-01T20:22:11;4.60;99.90
15152;DHT22;7676;50.900;6.234;2023-03-01T20:37:17;4.30;99.90
15152;DHT22;7676;50.900;6.234;2023-03-01T20:52:19;3.30;99.90
15152;DHT22;7676;50.900;6.234;2023-03-01T21:07:22;2.70;99.90
15152;DHT22;7676;50.900;6.234;2023-03-01T21:22:24;2.90;99.90
15152;DHT22;7676;50.900;6.234;2023-03-01T21:37:27;2.80;99.90
15152;DHT22;7676;50.900;6.234;2023-03-01T21:52:29;3.20;99.90
15152;DHT22;7676;50.900;6.234;2023-03-01T22:07:31;2.80;99.90
15152;DHT22;7676;50.900;6.234;2023-03-01T22:22:34;2.60;99.90
15152;DHT22;7676;50.900;6.234;2023-03-01T22:37:36;2.90;99.90
15152;DHT22;7676;50.900;6.234;2023-03-01T22:52:39;3.10;99.90
15152;DHT22;7676;50.900;6.234;2023-03-01T23:07:41;2.10;99.90
15152;DHT22;7676;50.900;6.234;2023-03-01T23:22:45;3.80;99.90
15152;DHT22;7676;50.900;6.234;2023-03-01T23:37:48;2.20;99.90
15152;DHT22;7676;50.900;6.234;2023-03-01T23:52:50;1.70;99.90
